Time;durP1;ratioP1;P1;durP2;ratioP2;P2;SDS_P1;SDS_P2;PMS_P1;PMS_P2;Temp;Humidity;BMP_temperature;BMP_pressure;BME280_temperature;BME280_humidity;BME280_pressure;Samples;Min_cycle;Max_cycle;Signal;HPM_P1;HPM_P2
2022/12/07 00:02:12;;;;;;;6.70;0.85;;;;;;;1.80;100.00;102006.63;5096038;28;20036;-76
2022/12/07 00:04:37;;;;;;;2.80;0.50;;;;;;;1.67;100.00;102010.59;5095381;28;20035;-76
2022/12/07 00:07:04;;;;;;;3.38;0.60;;;;;;;1.55;100.00;102004.00;5095430;28;20077;-76
2022/12/07 00:09:29;;;;;;;6.70;1.10;;;;;;;1.46;100.00;101997.28;5095614;28;20476;-76
2022/12/07 00:11:54;;;;;;;3.75;1.25;;;;;;;1.44;100.00;102006.13;5095221;28;20036;-76
2022/12/07 00:14:20;;;;;;;1.40;0.57;;;;;;;1.37;100.00;102000.22;5095680;28;20032;-77
2022/12/07 00:16:49;;;;;;;2.60;0.55;;;;;;;1.28;100.00;102004.00;5095084;28;20071;-76
2022/12/07 00:19:14;;;;;;;5.90;0.88;;;;;;;1.20;100.00;101996.41;5095174;28;20036;-76
2022/12/07 00:21:39;;;;;;;6.32;0.90;;;;;;;1.12;100.00;101998.44;5095451;28;20464;-76
2022/12/07 00:24:05;;;;;;;4.18;0.65;;;;;;;1.06;100.00;101998.63;5095664;28;20028;-77
2022/12/07 00:26:37;;;;;;;10.65;1.10;;;;;;;1.08;100.00;101990.72;5095332;28;20089;-77
2022/12/07 00:29:15;;;;;;;13.75;1.30;;;;;;;1.12;100.00;101989.69;5095000;28;20047;-77
2022/12/07 00:31:40;;;;;;;9.75;1.27;;;;;;;1.16;100.00;101988.69;5095443;28;20126;-77
2022/12/07 00:34:14;;;;;;;7.05;1.52;;;;;;;1.14;100.00;101985.28;5095896;28;20475;-77
2022/12/07 00:36:39;;;;;;;7.18;1.30;;;;;;;1.11;100.00;101985.38;5095666;28;20109;-77
2022/12/07 00:39:04;;;;;;;8.68;1.20;;;;;;;1.08;100.00;101985.47;5095061;28;20478;-77
2022/12/07 00:41:30;;;;;;;5.53;0.95;;;;;;;1.01;100.00;101982.19;5095108;28;20032;-77
2022/12/07 00:43:57;;;;;;;5.85;1.10;;;;;;;0.92;100.00;101993.81;5095099;28;20032;-77
2022/12/07 00:46:23;;;;;;;8.90;1.27;;;;;;;0.85;100.00;101987.03;5095192;28;20032;-77
2022/12/07 00:48:50;;;;;;;7.38;0.93;;;;;;;0.92;100.00;101996.44;5095201;28;20461;-77
2022/12/07 00:51:18;;;;;;;12.27;1.35;;;;;;;1.03;100.00;101993.47;5094987;28;20045;-77
2022/12/07 00:53:43;;;;;;;6.90;1.42;;;;;;;1.11;100.00;101996.72;5094408;28;20500;-76
2022/12/07 00:56:15;;;;;;;13.73;1.48;;;;;;;1.15;100.00;101995.72;5094767;28;20050;-77
2022/12/07 00:58:40;;;;;;;4.25;1.20;;;;;;;1.15;100.00;101987.84;5094894;28;20482;-75
2022/12/07 01:01:07;;;;;;;11.10;1.55;;;;;;;1.11;100.00;101986.22;5094417;28;20119;-77
2022/12/07 01:03:33;;;;;;;6.28;1.63;;;;;;;1.10;100.00;101976.63;5094840;28;20028;-75
2022/12/07 01:05:59;;;;;;;9.02;1.63;;;;;;;1.12;100.00;101984.44;5076618;28;20036;-75
2022/12/07 01:08:26;;;;;;;6.35;1.33;;;;;;;1.03;100.00;101983.84;5094742;28;20032;-76
2022/12/07 01:11:06;;;;;;;6.07;1.20;;;;;;;0.89;100.00;101991.28;5095005;28;20058;-75
2022/12/07 01:13:33;;;;;;;6.85;1.30;;;;;;;0.76;100.00;101985.59;5094226;28;20060;-76
2022/12/07 01:16:01;;;;;;;10.32;1.52;;;;;;;0.65;100.00;101983.28;5093465;28;20518;-76
2022/12/07 01:18:27;;;;;;;4.40;0.70;;;;;;;0.54;100.00;101985.38;5077129;28;20078;-75
2022/12/07 01:21:09;;;;;;;7.18;0.60;;;;;;;0.44;100.00;101978.72;5096695;28;20038;-75
2022/12/07 01:23:35;;;;;;;9.52;1.38;;;;;;;0.39;100.00;101986.69;5094947;28;20036;-75
2022/12/07 01:26:05;;;;;;;5.03;0.88;;;;;;;0.36;100.00;101984.19;5094169;28;20036;-75
2022/12/07 01:28:30;;;;;;;1.45;0.50;;;;;;;0.39;100.00;101988.44;5094393;28;20036;-75
2022/12/07 01:31:04;;;;;;;7.72;1.13;;;;;;;0.53;100.00;102005.47;5094608;28;20147;-76
2022/12/07 01:33:33;;;;;;;11.23;1.60;;;;;;;0.83;100.00;102002.81;5094208;28;20043;-76
2022/12/07 01:36:07;;;;;;;10.30;1.73;;;;;;;1.19;100.00;101997.28;5076101;28;20026;-75
2022/12/07 01:38:33;;;;;;;11.15;1.13;;;;;;;1.47;100.00;101992.91;5094270;28;20028;-75
2022/12/07 01:41:00;;;;;;;8.65;1.30;;;;;;;1.66;100.00;101995.78;5093600;28;20115;-75
2022/12/07 01:43:28;;;;;;;14.10;1.98;;;;;;;1.79;100.00;101997.03;5094598;28;20043;-75
2022/12/07 01:45:54;;;;;;;10.25;1.20;;;;;;;1.88;100.00;101991.47;5093808;28;20528;-75
2022/12/07 01:48:24;;;;;;;10.90;1.10;;;;;;;1.91;100.00;101982.63;5093928;28;20056;-75
2022/12/07 01:50:53;;;;;;;9.20;1.42;;;;;;;1.85;100.00;101986.34;5093479;28;20075;-75
2022/12/07 01:53:20;;;;;;;8.20;1.63;;;;;;;1.75;100.00;101982.34;5094351;28;20415;-75
2022/12/07 01:55:51;;;;;;;12.70;1.67;;;;;;;1.58;100.00;101983.78;5093649;28;20070;-76
2022/12/07 01:58:17;;;;;;;8.02;0.93;;;;;;;1.43;100.00;101976.41;5094059;28;20051;-75
2022/12/07 02:00:42;;;;;;;7.03;1.60;;;;;;;1.24;100.00;101973.56;5093761;28;20059;-75
2022/12/07 02:03:23;;;;;;;7.60;1.25;;;;;;;1.05;100.00;101973.31;5076177;28;20039;-75
2022/12/07 02:05:50;;;;;;;5.93;1.30;;;;;;;0.88;100.00;101965.97;5093463;28;20060;-75
2022/12/07 02:08:17;;;;;;;3.20;1.08;;;;;;;0.77;100.00;101974.19;5093778;28;20031;-75
2022/12/07 02:10:43;;;;;;;8.60;1.48;;;;;;;0.73;100.00;101969.94;5093421;28;20028;-76
2022/12/07 02:13:16;;;;;;;7.45;1.60;;;;;;;0.79;100.00;101974.13;5093571;28;20032;-75
2022/12/07 02:16:00;;;;;;;18.15;1.73;;;;;;;0.97;100.00;101970.06;5093567;28;20476;-75
2022/12/07 02:18:46;;;;;;;8.15;1.30;;;;;;;1.20;100.00;101967.56;5093919;28;20119;-75
2022/12/07 02:21:23;;;;;;;6.20;1.20;;;;;;;1.35;100.00;101957.47;5093871;28;20035;-74
2022/12/07 02:24:22;;;;;;;8.15;1.17;;;;;;;1.42;100.00;101964.22;5074752;28;20036;-75
2022/12/07 02:26:55;;;;;;;7.07;1.35;;;;;;;1.43;100.00;101960.66;5093484;28;20398;-76
2022/12/07 02:29:36;;;;;;;4.72;1.35;;;;;;;1.41;100.00;101963.34;5093644;28;20038;-75
2022/12/07 02:32:08;;;;;;;7.50;1.15;;;;;;;1.49;100.00;101973.56;5093286;28;20384;-75
2022/12/07 02:34:42;;;;;;;9.20;1.20;;;;;;;1.62;100.00;101974.03;5093292;28;20027;-75
2022/12/07 02:37:21;;;;;;;6.10;1.20;;;;;;;1.68;100.00;101965.09;5093550;28;20028;-75
2022/12/07 02:39:54;;;;;;;12.75;1.70;;;;;;;1.68;100.00;101973.81;5092490;28;20031;-76
2022/12/07 02:42:27;;;;;;;10.13;1.83;;;;;;;1.68;100.00;101975.56;5093810;28;20104;-76
2022/12/07 02:44:52;;;;;;;6.05;1.15;;;;;;;1.69;100.00;101977.31;5093375;28;20024;-75
2022/12/07 02:47:21;;;;;;;13.50;1.58;;;;;;;1.76;100.00;101984.03;5074735;28;20048;-76
2022/12/07 02:49:47;;;;;;;6.57;1.33;;;;;;;1.93;100.00;101963.28;5093005;28;20111;-77
2022/12/07 02:52:12;;;;;;;8.68;1.13;;;;;;;2.04;100.00;101962.03;5092984;28;20074;-76
2022/12/07 02:54:38;;;;;;;7.13;1.27;;;;;;;2.16;100.00;101947.59;5093342;28;20516;-77
2022/12/07 02:57:48;;;;;;;4.70;0.93;;;;;;;2.18;100.00;101951.91;5092872;28;20050;-76
2022/12/07 03:00:19;;;;;;;6.97;1.30;;;;;;;2.15;100.00;101953.75;5036904;28;20032;-77
2022/12/07 03:03:00;;;;;;;2.85;0.65;;;;;;;2.09;100.00;101965.34;5092641;28;20107;-76
2022/12/07 03:05:39;;;;;;;5.32;1.05;;;;;;;2.05;100.00;101959.34;5092916;28;20069;-77
2022/12/07 03:08:38;;;;;;;7.50;0.73;;;;;;;2.01;100.00;101970.03;5093419;28;20032;-75
2022/12/07 03:11:08;;;;;;;6.78;1.52;;;;;;;2.01;100.00;101964.78;5092712;28;20145;-75
2022/12/07 03:14:00;;;;;;;7.97;1.17;;;;;;;2.02;100.00;101969.13;5093645;28;20035;-75
2022/12/07 03:16:52;;;;;;;;;;;;;;;2.03;100.00;101970.81;5093178;28;20024;-75
2022/12/07 03:19:20;;;;;;;10.05;0.93;;;;;;;2.14;100.00;101975.69;5088717;28;19933;-75
2022/12/07 03:22:00;;;;;;;13.10;3.08;;;;;;;2.22;100.00;101977.09;5092904;28;20033;-74
2022/12/07 03:24:41;;;;;;;8.38;1.38;;;;;;;2.29;100.00;101965.47;5092503;28;20031;-75
2022/12/07 03:27:25;;;;;;;7.30;1.23;;;;;;;2.36;100.00;101966.09;5092983;28;20456;-74
2022/12/07 03:30:00;;;;;;;8.43;0.95;;;;;;;2.36;100.00;101952.09;5092557;28;20038;-75
2022/12/07 03:32:40;;;;;;;8.18;1.23;;;;;;;2.28;100.00;101955.00;5093328;28;20028;-75
2022/12/07 03:35:12;;;;;;;8.55;1.23;;;;;;;2.10;100.00;101954.78;5093157;28;20122;-75
2022/12/07 03:38:02;;;;;;;10.30;1.35;;;;;;;1.97;100.00;101950.94;5092699;28;20063;-74
2022/12/07 03:40:39;;;;;;;8.85;1.00;;;;;;;1.87;100.00;101946.91;5096232;28;20031;-77
2022/12/07 03:43:05;;;;;;;7.63;1.00;;;;;;;1.74;100.00;101947.34;5093870;28;20099;-73
2022/12/07 03:45:59;;;;;;;3.08;1.13;;;;;;;1.63;100.00;101951.25;5073804;28;20049;-74
2022/12/07 03:48:37;;;;;;;8.57;1.00;;;;;;;1.59;100.00;101948.75;5092097;28;20131;-74
2022/12/07 03:51:20;;;;;;;2.88;0.93;;;;;;;1.68;100.00;101949.34;5091977;28;20134;-74
2022/12/07 03:53:54;;;;;;;12.68;1.30;;;;;;;1.83;100.00;101940.06;5091922;28;20059;-74
2022/12/07 03:56:22;;;;;;;10.85;1.60;;;;;;;1.93;100.00;101937.03;5091932;28;20506;-74
2022/12/07 03:58:49;;;;;;;10.00;1.33;;;;;;;2.01;100.00;101933.28;5091609;28;20170;-74
2022/12/07 04:01:14;;;;;;;6.43;1.20;;;;;;;2.10;100.00;101938.19;5073329;28;20043;-74
2022/12/07 04:03:39;;;;;;;6.22;1.23;;;;;;;2.17;100.00;101939.66;5073642;28;20325;-74
2022/12/07 04:06:05;;;;;;;15.38;1.73;;;;;;;2.20;100.00;101939.53;5091493;28;20040;-75
2022/12/07 04:08:30;;;;;;;11.38;1.42;;;;;;;2.20;100.00;101931.66;5073419;28;20459;-74
2022/12/07 04:10:56;;;;;;;8.25;1.40;;;;;;;2.28;100.00;101940.13;5091451;28;20075;-74
2022/12/07 04:13:21;;;;;;;9.50;1.35;;;;;;;2.31;100.00;101933.88;5091833;28;20117;-74
2022/12/07 04:15:46;;;;;;;7.72;1.52;;;;;;;2.33;100.00;101932.06;5073381;28;20043;-75
2022/12/07 04:18:12;;;;;;;10.95;1.90;;;;;;;2.37;100.00;101931.00;5073165;28;20422;-75
2022/12/07 04:20:37;;;;;;;8.07;1.75;;;;;;;2.36;100.00;101945.09;5091846;28;20028;-75
2022/12/07 04:23:02;;;;;;;9.00;1.67;;;;;;;2.32;100.00;101932.13;5056531;28;20425;-75
2022/12/07 04:25:28;;;;;;;8.93;2.72;;;;;;;2.29;100.00;101927.84;5091625;28;20028;-74
2022/12/07 04:27:53;;;;;;;8.50;1.70;;;;;;;2.18;100.00;101930.00;5091063;28;20060;-74
2022/12/07 04:30:19;;;;;;;13.38;1.98;;;;;;;2.09;100.00;101923.31;5091176;28;20428;-74
2022/12/07 04:32:44;;;;;;;9.73;1.88;;;;;;;1.99;100.00;101922.84;5090941;28;20436;-75
2022/12/07 04:35:09;;;;;;;11.73;1.50;;;;;;;1.89;100.00;101918.84;5090605;28;20043;-75
2022/12/07 04:37:35;;;;;;;6.68;1.58;;;;;;;1.72;100.00;101919.47;5091136;28;20073;-75
2022/12/07 04:40:00;;;;;;;4.55;1.33;;;;;;;1.56;100.00;101917.38;5072143;28;20039;-75
2022/12/07 04:42:25;;;;;;;10.10;1.27;;;;;;;1.41;100.00;101916.13;5090822;28;20043;-75
2022/12/07 04:44:51;;;;;;;7.55;1.40;;;;;;;1.26;100.00;101910.59;5090704;28;20172;-75
2022/12/07 04:47:16;;;;;;;4.20;1.08;;;;;;;1.09;100.00;101909.41;5090358;28;20048;-75
2022/12/07 04:49:43;;;;;;;6.95;1.27;;;;;;;0.96;100.00;101913.34;5090449;28;20078;-75
2022/12/07 04:52:08;;;;;;;4.45;0.93;;;;;;;0.84;100.00;101899.72;5090658;28;20044;-75
2022/12/07 04:54:34;;;;;;;4.60;1.33;;;;;;;0.77;100.00;101899.97;5090627;28;20357;-75
2022/12/07 04:56:59;;;;;;;7.15;1.35;;;;;;;0.75;100.00;101912.25;5091037;28;20401;-74
2022/12/07 04:59:25;;;;;;;5.88;0.90;;;;;;;0.69;100.00;101908.94;5090382;28;20036;-74
2022/12/07 05:01:50;;;;;;;7.93;1.17;;;;;;;0.62;100.00;101909.19;5090593;28;20138;-74
2022/12/07 05:04:15;;;;;;;5.70;1.05;;;;;;;0.58;100.00;101907.56;5090296;28;20032;-74
2022/12/07 05:06:41;;;;;;;4.35;1.10;;;;;;;0.51;100.00;101901.66;5090135;28;20049;-75
2022/12/07 05:09:07;;;;;;;3.80;1.00;;;;;;;0.45;100.00;101907.06;5089975;28;20040;-75
2022/12/07 05:11:38;;;;;;;5.28;1.10;;;;;;;0.37;100.00;101907.31;5089885;28;20036;-74
2022/12/07 05:14:15;;;;;;;9.52;2.00;;;;;;;0.33;100.00;101901.34;5090378;28;20090;-74
2022/12/07 05:16:42;;;;;;;5.65;1.45;;;;;;;0.33;100.00;101903.09;5090248;28;20159;-74
2022/12/07 05:19:08;;;;;;;7.30;1.33;;;;;;;0.32;100.00;101902.22;5071334;28;20127;-75
2022/12/07 05:21:34;;;;;;;8.02;1.75;;;;;;;0.32;100.00;101906.63;5090062;28;20075;-75
2022/12/07 05:24:00;;;;;;;4.88;1.38;;;;;;;0.27;100.00;101905.88;5090120;28;20062;-75
2022/12/07 05:26:25;;;;;;;6.57;1.20;;;;;;;0.20;100.00;101907.00;5071892;28;20028;-75
2022/12/07 05:28:52;;;;;;;4.53;1.17;;;;;;;0.12;100.00;101899.34;5071940;28;20035;-76
2022/12/07 05:31:18;;;;;;;6.65;1.35;;;;;;;0.03;100.00;101900.50;5090162;28;20040;-74
2022/12/07 05:33:43;;;;;;;11.25;2.00;;;;;;;0.00;100.00;101905.81;5090093;28;20063;-74
2022/12/07 05:36:09;;;;;;;9.93;1.58;;;;;;;-0.06;100.00;101900.75;5090108;28;20146;-74
2022/12/07 05:38:34;;;;;;;8.10;1.42;;;;;;;-0.10;100.00;101902.59;5090161;28;20080;-74
2022/12/07 05:41:01;;;;;;;2.80;1.02;;;;;;;-0.13;100.00;101894.84;5089904;28;20028;-75
2022/12/07 05:43:27;;;;;;;15.55;1.77;;;;;;;-0.11;100.00;101900.03;5090070;28;20123;-75
2022/12/07 05:45:52;;;;;;;7.28;1.50;;;;;;;0.05;100.00;101905.69;5071522;28;20093;-75
2022/12/07 05:48:17;;;;;;;6.93;1.08;;;;;;;0.21;100.00;101906.06;5089565;28;20481;-75
2022/12/07 05:50:43;;;;;;;13.55;1.63;;;;;;;0.32;100.00;101907.47;5089541;28;20435;-75
2022/12/07 05:53:08;;;;;;;9.85;1.10;;;;;;;0.47;100.00;101900.88;5089577;28;20028;-75
2022/12/07 05:55:33;;;;;;;22.02;1.52;;;;;;;0.70;100.00;101907.16;5090031;28;20131;-74
2022/12/07 06:00:43;;;;;;;10.32;1.10;;;;;;;1.01;100.00;101909.63;5089607;28;20129;-74
2022/12/07 06:03:08;;;;;;;7.40;1.38;;;;;;;1.15;100.00;101908.31;5089613;28;20360;-73
2022/12/07 06:05:33;;;;;;;10.00;1.30;;;;;;;1.29;100.00;101906.09;5089084;28;20129;-74
2022/12/07 06:07:59;;;;;;;11.77;1.38;;;;;;;1.42;100.00;101909.16;5089389;28;20063;-74
2022/12/07 06:10:24;;;;;;;10.35;1.30;;;;;;;1.46;100.00;101908.09;5089255;28;20187;-74
2022/12/07 06:12:50;;;;;;;8.27;1.13;;;;;;;1.41;100.00;101905.66;5088884;28;20414;-74
2022/12/07 06:15:15;;;;;;;10.48;1.13;;;;;;;1.34;100.00;101900.69;5089255;28;20039;-75
2022/12/07 06:17:40;;;;;;;7.97;1.13;;;;;;;1.29;100.00;101900.00;5090160;28;20114;-75
2022/12/07 06:20:06;;;;;;;13.80;1.63;;;;;;;1.23;100.00;101901.06;5089809;28;20039;-75
2022/12/07 06:22:32;;;;;;;7.32;1.35;;;;;;;1.15;100.00;101903.06;5090212;28;20416;-75
2022/12/07 06:24:57;;;;;;;9.30;1.33;;;;;;;1.12;100.00;101905.78;5090067;28;20064;-75
2022/12/07 06:27:22;;;;;;;10.27;1.67;;;;;;;1.24;100.00;101902.78;5089664;28;20069;-75
2022/12/07 06:29:48;;;;;;;7.93;1.38;;;;;;;1.41;100.00;101907.44;5089855;28;20152;-74
2022/12/07 06:32:13;;;;;;;8.73;1.40;;;;;;;1.56;100.00;101909.50;5089350;28;20189;-75
2022/12/07 06:34:39;;;;;;;12.13;1.42;;;;;;;1.69;100.00;101911.69;5089799;28;20469;-74
2022/12/07 06:37:04;;;;;;;7.22;1.20;;;;;;;1.67;100.00;101903.88;5089684;28;20181;-74
2022/12/07 06:39:30;;;;;;;7.82;1.23;;;;;;;1.70;100.00;101905.53;5089285;28;20051;-74
2022/12/07 06:41:56;;;;;;;5.32;1.02;;;;;;;1.78;100.00;101908.75;5071227;28;20039;-74
2022/12/07 06:44:23;;;;;;;13.05;2.15;;;;;;;1.91;100.00;101903.88;5089428;28;20055;-74
2022/12/07 06:46:49;;;;;;;10.93;1.60;;;;;;;2.02;100.00;101912.22;5089402;28;20085;-75
2022/12/07 06:49:14;;;;;;;8.05;1.40;;;;;;;2.04;100.00;101912.16;5070929;28;20147;-74
2022/12/07 06:51:43;;;;;;;8.43;1.77;;;;;;;2.07;100.00;101912.03;5071142;28;20241;-74
2022/12/07 06:54:09;;;;;;;7.32;1.25;;;;;;;2.14;100.00;101907.44;5089567;28;20110;-74
2022/12/07 06:56:35;;;;;;;6.43;1.30;;;;;;;2.10;100.00;101912.75;5070922;28;20032;-75
2022/12/07 06:59:00;;;;;;;9.43;1.08;;;;;;;2.06;100.00;101908.56;5089407;28;20039;-75
2022/12/07 07:01:26;;;;;;;4.43;0.95;;;;;;;2.02;100.00;101912.22;5089468;28;20047;-75
2022/12/07 07:03:52;;;;;;;6.15;1.05;;;;;;;2.00;100.00;101906.19;5089361;28;20505;-75
2022/12/07 07:06:17;;;;;;;7.28;1.05;;;;;;;1.98;100.00;101909.78;5071248;28;20063;-77
2022/12/07 07:08:43;;;;;;;9.32;1.10;;;;;;;1.94;100.00;101909.88;5089894;28;20363;-74
2022/12/07 07:11:09;;;;;;;4.25;0.82;;;;;;;1.99;100.00;101911.50;5089332;28;20043;-74
2022/12/07 07:13:34;;;;;;;6.55;1.52;;;;;;;2.05;100.00;101916.50;5090142;28;20120;-72
2022/12/07 07:16:00;;;;;;;9.18;0.88;;;;;;;2.15;100.00;101920.50;5092300;28;20058;-73
2022/12/07 07:18:26;;;;;;;10.10;1.50;;;;;;;2.19;100.00;101910.72;5092374;28;20445;-74
2022/12/07 07:20:52;;;;;;;4.68;0.80;;;;;;;2.21;100.00;101904.50;5092922;28;20201;-77
2022/12/07 07:23:18;;;;;;;6.28;1.13;;;;;;;2.14;100.00;101917.94;5092551;28;20051;-74
2022/12/07 07:25:44;;;;;;;6.50;0.95;;;;;;;2.00;100.00;101911.44;5092324;28;20043;-73
2022/12/07 07:28:09;;;;;;;9.10;1.50;;;;;;;1.88;100.00;101920.63;5092961;28;20151;-72
2022/12/07 07:30:34;;;;;;;6.82;1.30;;;;;;;1.80;100.00;101916.56;5092340;28;20165;-71
2022/12/07 07:33:01;;;;;;;7.43;0.90;;;;;;;1.77;100.00;101913.09;5092584;28;20032;-72
2022/12/07 07:35:28;;;;;;;6.25;1.10;;;;;;;1.77;100.00;101914.88;5092399;28;20040;-72
2022/12/07 07:37:54;;;;;;;5.75;1.35;;;;;;;1.89;100.00;101921.47;5092594;28;20067;-71
2022/12/07 07:40:20;;;;;;;3.85;0.70;;;;;;;2.01;100.00;101915.75;5092123;28;20075;-70
2022/12/07 07:42:51;;;;;;;11.75;1.10;;;;;;;2.11;100.00;101918.91;5091813;28;20104;-72
2022/12/07 07:45:18;;;;;;;6.97;1.42;;;;;;;2.18;100.00;101909.00;5092028;28;20100;-73
2022/12/07 07:47:43;;;;;;;3.10;0.82;;;;;;;2.25;100.00;101905.22;5091521;28;20044;-73
2022/12/07 07:50:09;;;;;;;10.48;1.17;;;;;;;2.28;100.00;101913.00;5091824;28;20536;-73
2022/12/07 07:52:34;;;;;;;3.05;0.85;;;;;;;2.36;100.00;101908.31;5092069;28;20035;-73
2022/12/07 07:55:00;;;;;;;3.78;0.73;;;;;;;2.42;100.00;101910.69;5092097;28;20032;-73
2022/12/07 07:57:25;;;;;;;1.75;0.60;;;;;;;2.46;100.00;101907.03;5091430;28;20032;-73
2022/12/07 07:59:51;;;;;;;2.13;0.40;;;;;;;2.45;100.00;101904.47;5091512;28;20494;-72
2022/12/07 08:02:18;;;;;;;5.75;1.25;;;;;;;2.39;100.00;101902.94;5091486;28;20036;-73
2022/12/07 08:04:44;;;;;;;2.13;0.50;;;;;;;2.33;100.00;101902.31;5091012;28;20119;-78
2022/12/07 08:07:10;;;;;;;3.00;0.63;;;;;;;2.30;100.00;101903.31;5091590;28;20127;-71
2022/12/07 08:09:35;;;;;;;1.42;0.60;;;;;;;2.27;100.00;101909.53;5092407;28;20535;-76
2022/12/07 08:12:01;;;;;;;6.97;0.93;;;;;;;2.25;100.00;101908.69;5092738;28;20111;-75
2022/12/07 08:14:27;;;;;;;3.35;0.65;;;;;;;2.24;100.00;101916.63;5092243;28;20462;-74
2022/12/07 08:16:53;;;;;;;1.30;0.50;;;;;;;2.20;100.00;101922.94;5092095;28;20086;-72
2022/12/07 08:19:18;;;;;;;3.80;0.80;;;;;;;2.22;100.00;101916.69;5092226;28;20113;-73
2022/12/07 08:21:43;;;;;;;7.35;0.55;;;;;;;2.29;100.00;101922.59;5091846;28;20035;-74
2022/12/07 08:24:09;;;;;;;2.47;0.70;;;;;;;2.33;100.00;101921.56;5091401;28;20397;-71
2022/12/07 08:26:34;;;;;;;7.97;1.17;;;;;;;2.49;100.00;101920.97;5073317;28;20043;-72
2022/12/07 08:28:59;;;;;;;2.67;0.55;;;;;;;2.56;100.00;101917.19;5091827;28;20036;-72
2022/12/07 08:31:25;;;;;;;4.10;1.20;;;;;;;2.60;100.00;101919.63;5091644;28;20107;-70
2022/12/07 08:33:50;;;;;;;2.58;0.70;;;;;;;2.63;100.00;101910.75;5091740;28;20461;-72
2022/12/07 08:36:16;;;;;;;10.48;1.23;;;;;;;2.59;100.00;101911.78;5073066;28;20028;-73
2022/12/07 08:38:42;;;;;;;3.65;1.15;;;;;;;2.52;100.00;101913.78;5091763;28;20024;-72
2022/12/07 08:41:08;;;;;;;4.20;1.00;;;;;;;2.40;100.00;101920.38;5091729;28;20032;-73
2022/12/07 08:43:35;;;;;;;4.43;1.23;;;;;;;2.32;100.00;101916.38;5091478;28;20081;-73
2022/12/07 08:46:36;;;;;;;4.25;0.70;;;;;;;2.21;100.00;101914.13;5092076;28;20024;-73
2022/12/07 08:49:11;;;;;;;7.28;1.20;;;;;;;2.20;100.00;101913.28;5091835;28;20327;-72
2022/12/07 08:51:38;;;;;;;6.60;1.15;;;;;;;2.32;100.00;101919.00;5091768;28;20028;-72
2022/12/07 08:54:07;;;;;;;8.05;1.40;;;;;;;2.63;100.00;101931.78;5091151;28;20054;-73
2022/12/07 08:56:34;;;;;;;6.10;1.27;;;;;;;2.91;100.00;101934.16;5073337;28;20032;-73
2022/12/07 08:58:59;;;;;;;5.60;1.33;;;;;;;3.08;100.00;101927.34;5091435;28;20036;-72
2022/12/07 09:01:25;;;;;;;5.80;1.33;;;;;;;3.17;100.00;101926.97;5091088;28;20034;-70
2022/12/07 09:03:50;;;;;;;7.93;1.55;;;;;;;3.21;100.00;101919.78;5091247;28;20115;-73
2022/12/07 09:06:15;;;;;;;3.45;0.82;;;;;;;3.26;100.00;101923.09;5072743;28;20135;-73
2022/12/07 09:08:46;;;;;;;4.60;0.95;;;;;;;3.24;100.00;101922.28;5072496;28;20032;-71
2022/12/07 09:11:11;;;;;;;7.60;1.30;;;;;;;3.20;100.00;101912.84;5091180;28;20036;-71
2022/12/07 09:13:37;;;;;;;3.50;0.80;;;;;;;3.18;100.00;101908.47;5072352;28;20158;-72
2022/12/07 09:16:02;;;;;;;3.80;1.00;;;;;;;3.21;100.00;101911.88;5072278;28;20495;-73
2022/12/07 09:18:28;;;;;;;6.97;1.30;;;;;;;3.16;100.00;101915.59;5090753;28;20103;-72
2022/12/07 09:20:53;;;;;;;6.28;0.90;;;;;;;3.12;100.00;101915.75;5091360;28;20136;-73
2022/12/07 09:23:18;;;;;;;9.55;1.52;;;;;;;3.08;100.00;101919.47;5072907;28;20028;-72
2022/12/07 09:25:44;;;;;;;5.85;1.20;;;;;;;3.10;100.00;101921.09;5091062;28;20082;-71
2022/12/07 09:28:09;;;;;;;6.05;0.93;;;;;;;3.15;100.00;101918.25;5091038;28;20034;-70
2022/12/07 09:30:35;;;;;;;9.38;1.20;;;;;;;3.25;100.00;101922.22;5090940;28;20058;-71
2022/12/07 09:33:01;;;;;;;2.90;0.80;;;;;;;3.29;100.00;101910.66;5090789;28;20061;-71
2022/12/07 09:35:26;;;;;;;3.70;0.82;;;;;;;3.41;100.00;101911.91;5090993;28;20175;-70
2022/12/07 09:37:52;;;;;;;8.55;1.08;;;;;;;3.65;100.00;101909.13;5090708;28;20135;-70
2022/12/07 09:40:22;;;;;;;5.50;1.42;;;;;;;3.96;100.00;101908.59;5072532;28;20410;-72
2022/12/07 09:42:51;;;;;;;4.30;0.90;;;;;;;4.31;100.00;101913.16;5090650;28;20027;-71
2022/12/07 09:45:23;;;;;;;9.90;1.90;;;;;;;4.66;100.00;101914.09;5090749;28;20043;-71
2022/12/07 09:47:48;;;;;;;16.10;1.90;;;;;;;4.91;100.00;101908.47;5090681;28;20083;-71
2022/12/07 09:50:18;;;;;;;7.13;1.88;;;;;;;4.92;100.00;101915.44;5091223;28;20104;-71
2022/12/07 09:52:45;;;;;;;7.65;1.70;;;;;;;4.79;100.00;101908.22;5091500;28;20024;-71
2022/12/07 09:55:16;;;;;;;9.73;1.38;;;;;;;4.63;100.00;101905.47;5090746;28;20039;-70
2022/12/07 09:57:42;;;;;;;7.43;1.30;;;;;;;4.46;100.00;101904.50;5090384;28;20028;-72
2022/12/07 10:00:21;;;;;;;9.18;1.25;;;;;;;4.29;100.00;101917.66;5090770;28;20065;-70
2022/12/07 10:02:53;;;;;;;11.52;1.55;;;;;;;4.17;100.00;101911.16;5090987;28;20024;-74
2022/12/07 10:05:24;;;;;;;8.52;1.63;;;;;;;4.15;100.00;101903.34;5090633;28;20108;-74
2022/12/07 10:07:49;;;;;;;8.00;1.08;;;;;;;4.17;100.00;101901.47;5090485;28;20028;-72
2022/12/07 10:10:20;;;;;;;10.50;1.30;;;;;;;4.23;100.00;101895.91;5089908;28;20032;-73
2022/12/07 10:13:04;;;;;;;5.55;1.23;;;;;;;4.27;100.00;101906.31;5072313;28;20487;-74
2022/12/07 10:16:00;;;;;;;6.57;1.20;;;;;;;4.29;100.00;101901.84;5090121;28;20035;-72
2022/12/07 10:18:41;;;;;;;7.20;1.00;;;;;;;4.22;100.00;101898.63;5072229;28;20045;-74
2022/12/07 10:21:16;;;;;;;7.63;1.80;;;;;;;4.20;100.00;101895.22;5090228;28;20062;-73
2022/12/07 10:24:04;;;;;;;6.22;1.23;;;;;;;4.18;100.00;101891.78;5089941;28;20062;-74
2022/12/07 10:26:33;;;;;;;5.45;0.95;;;;;;;4.23;100.00;101895.06;5090157;28;20043;-74
2022/12/07 10:29:14;;;;;;;6.88;1.15;;;;;;;4.43;100.00;101894.09;5089666;28;20096;-76
2022/12/07 10:31:40;;;;;;;10.03;1.17;;;;;;;4.79;100.00;101882.69;5089704;28;20046;-72
2022/12/07 10:34:20;;;;;;;5.50;0.90;;;;;;;5.15;100.00;101889.72;5089257;28;20111;-72
2022/12/07 10:36:46;;;;;;;2.67;0.88;;;;;;;5.36;100.00;101878.97;5089829;28;20058;-76
2022/12/07 10:39:20;;;;;;;3.35;0.80;;;;;;;5.37;100.00;101872.75;5089502;28;20108;-72
2022/12/07 10:42:17;;;;;;;4.35;1.20;;;;;;;5.23;100.00;101874.34;5089217;28;20062;-72
2022/12/07 10:44:44;;;;;;;3.70;0.90;;;;;;;5.07;100.00;101865.50;5088363;28;20089;-71
2022/12/07 10:47:24;;;;;;;8.30;2.08;;;;;;;5.06;100.00;101872.56;5089649;28;20492;-72
2022/12/07 10:50:38;;;;;;;1.77;0.73;;;;;;;5.20;100.00;101865.72;5093420;28;20448;-72
2022/12/07 10:53:36;;;;;;;6.65;0.98;;;;;;;5.35;100.00;101858.81;5070162;28;20202;-71
2022/12/07 10:56:26;;;;;;;2.17;0.75;;;;;;;5.40;100.00;101846.22;5041294;28;20069;-73
2022/12/07 10:58:54;;;;;;;3.70;0.70;;;;;;;5.49;100.00;101848.34;5093172;28;20084;-73
2022/12/07 11:01:38;;;;;;;6.45;1.10;;;;;;;5.53;100.00;101849.91;5093589;28;20472;-73
2022/12/07 11:04:38;;;;;;;3.42;0.95;;;;;;;5.54;100.00;101841.06;5093728;28;20164;-74
2022/12/07 11:07:25;;;;;;;5.53;0.98;;;;;;;5.54;100.00;101834.91;5093425;28;20091;-73
2022/12/07 11:10:40;;;;;;;9.43;1.30;;;;;;;5.49;100.00;101843.06;5093315;28;20088;-73
2022/12/07 11:13:27;;;;;;;5.80;1.40;;;;;;;5.62;100.00;101835.38;5020108;28;20065;-72
2022/12/07 11:16:15;;;;;;;5.57;0.90;;;;;;;5.84;100.00;101832.41;5093116;28;20097;-72
2022/12/07 11:18:50;;;;;;;9.07;1.10;;;;;;;6.08;100.00;101829.41;5092898;28;20104;-73
2022/12/07 11:21:23;;;;;;;4.82;1.23;;;;;;;6.08;100.00;101838.16;5092969;28;20114;-73
2022/12/07 11:24:16;;;;;;;5.18;1.27;;;;;;;5.82;100.00;101847.47;5093188;28;20031;-74
2022/12/07 11:27:06;;;;;;;6.95;1.33;;;;;;;5.42;100.00;101855.75;5089368;28;20047;-73
2022/12/07 11:29:44;;;;;;;5.55;1.20;;;;;;;5.05;100.00;101841.84;5092921;28;20028;-73
2022/12/07 11:32:42;;;;;;;6.20;1.15;;;;;;;4.63;100.00;101844.84;5093010;28;20035;-73
2022/12/07 11:35:35;;;;;;;4.32;0.93;;;;;;;4.23;100.00;101834.47;5093076;28;20051;-73
2022/12/07 11:38:15;;;;;;;5.60;1.00;;;;;;;3.95;100.00;101832.28;5092737;28;20158;-75
2022/12/07 11:40:51;;;;;;;6.55;1.05;;;;;;;3.81;100.00;101838.22;5092926;28;20081;-74
2022/12/07 11:43:32;;;;;;;5.53;1.23;;;;;;;3.73;100.00;101837.69;5093000;28;20092;-74